createdAt,value
2022-08-26T00:01:19.137Z,100316.12
2022-08-26T00:03:55.769Z,100312.96
2022-08-26T00:06:22.092Z,100313.30
2022-08-26T00:08:49.009Z,100312.48
2022-08-26T00:11:15.390Z,100312.35
2022-08-26T00:13:56.907Z,100312.20
2022-08-26T00:16:25.035Z,100313.85
2022-08-26T00:18:52.462Z,100310.60
2022-08-26T00:21:19.691Z,100311.73
2022-08-26T00:23:46.330Z,100313.92
2022-08-26T00:26:13.748Z,100308.18
2022-08-26T00:28:40.605Z,100308.96
2022-08-26T00:31:07.268Z,100311.73
2022-08-26T00:33:33.849Z,100305.20
2022-08-26T00:36:00.961Z,100306.21
2022-08-26T00:38:27.560Z,100304.69
2022-08-26T00:40:56.086Z,100304.68
2022-08-26T00:43:24.846Z,100303.78
2022-08-26T00:45:55.772Z,100308.46
2022-08-26T00:48:24.806Z,100306.67
2022-08-26T00:50:57.923Z,100308.66
2022-08-26T00:53:28.537Z,100306.42
2022-08-26T00:56:07.173Z,100308.85
2022-08-26T00:58:37.110Z,100311.89
2022-08-26T01:01:04.398Z,100310.06
2022-08-26T01:03:33.588Z,100311.13
2022-08-26T01:06:00.964Z,100314.74
2022-08-26T01:08:27.464Z,100313.72
2022-08-26T01:10:55.893Z,100313.80
2022-08-26T01:13:22.614Z,100312.13
2022-08-26T01:15:53.221Z,100310.77
2022-08-26T01:18:19.943Z,100311.13
2022-08-26T01:21:02.993Z,100310.01
2022-08-26T01:23:37.423Z,100311.61
2022-08-26T01:26:19.679Z,100314.04
2022-08-26T01:28:50.596Z,100314.78
2022-08-26T01:31:21.237Z,100313.52
2022-08-26T01:34:01.363Z,100309.00
2022-08-26T01:36:28.361Z,100309.36
2022-08-26T01:38:54.744Z,100310.03
2022-08-26T01:41:27.499Z,100313.60
2022-08-26T01:43:56.609Z,100312.19
2022-08-26T01:46:25.687Z,100313.02
2022-08-26T01:48:54.660Z,100310.94
2022-08-26T01:51:22.958Z,100314.95
2022-08-26T01:53:50.057Z,100311.70
2022-08-26T01:56:16.448Z,100313.70
2022-08-26T01:58:46.694Z,100313.52
2022-08-26T02:01:14.383Z,100314.35
2022-08-26T02:04:02.972Z,100313.96
2022-08-26T02:06:29.606Z,100316.89
2022-08-26T02:08:59.672Z,100315.91
2022-08-26T02:11:27.083Z,100314.31
2022-08-26T02:13:57.693Z,100313.99
2022-08-26T02:16:26.836Z,100317.16
2022-08-26T02:18:53.762Z,100315.34
2022-08-26T02:21:20.724Z,100316.04
2022-08-26T02:23:47.141Z,100316.16
2022-08-26T02:26:18.123Z,100315.30
2022-08-26T02:28:48.891Z,100316.02
2022-08-26T02:31:15.823Z,100316.98
2022-08-26T02:33:43.181Z,100313.87
2022-08-26T02:36:10.758Z,100315.63
2022-08-26T02:38:39.756Z,100312.19
2022-08-26T02:41:06.292Z,100307.21
2022-08-26T02:43:34.421Z,100302.76
2022-08-26T02:46:02.376Z,100307.40
2022-08-26T02:48:29.351Z,100303.94
2022-08-26T02:50:58.368Z,100307.16
2022-08-26T02:53:25.545Z,100310.20
2022-08-26T02:55:52.543Z,100313.44
2022-08-26T02:58:20.044Z,100311.79
2022-08-26T03:00:53.085Z,100307.35
2022-08-26T03:03:22.481Z,100311.38
2022-08-26T03:05:50.906Z,100308.48
2022-08-26T03:08:17.564Z,100303.99
2022-08-26T03:10:43.884Z,100301.01
2022-08-26T03:13:10.366Z,100296.98
2022-08-26T03:15:36.861Z,100295.81
2022-08-26T03:18:04.604Z,100294.78
2022-08-26T03:20:31.455Z,100294.22
2022-08-26T03:22:57.770Z,100294.39
2022-08-26T03:25:25.956Z,100290.13
2022-08-26T03:27:52.702Z,100288.98
2022-08-26T03:30:38.035Z,100288.80
2022-08-26T03:33:04.911Z,100289.58
2022-08-26T03:35:32.451Z,100287.05
2022-08-26T03:37:59.143Z,100282.27
2022-08-26T03:40:25.716Z,100282.37
2022-08-26T03:42:55.576Z,100281.25
2022-08-26T03:45:21.925Z,100283.04
2022-08-26T03:47:48.511Z,100281.63
2022-08-26T03:50:22.619Z,100281.28
2022-08-26T03:52:51.448Z,100280.36
2022-08-26T03:55:19.751Z,100280.34
2022-08-26T03:57:50.919Z,100279.84
2022-08-26T04:00:18.481Z,100276.05
2022-08-26T04:02:48.058Z,100274.35
2022-08-26T04:05:15.350Z,100278.08
2022-08-26T04:07:42.724Z,100274.34
2022-08-26T04:10:11.289Z,100273.42
2022-08-26T04:12:38.535Z,100276.74
2022-08-26T04:15:08.828Z,100277.84
2022-08-26T04:17:35.845Z,100277.86
2022-08-26T04:20:05.043Z,100283.05
2022-08-26T04:22:33.380Z,100280.08
2022-08-26T04:25:01.083Z,100280.34
2022-08-26T04:27:27.455Z,100280.77
2022-08-26T04:29:55.277Z,100279.62
2022-08-26T04:32:21.963Z,100276.95
2022-08-26T04:34:48.862Z,100278.60
2022-08-26T04:37:15.683Z,100275.94
2022-08-26T04:39:42.296Z,100275.21
2022-08-26T04:42:10.750Z,100273.84
2022-08-26T04:44:37.838Z,100276.61
2022-08-26T04:47:05.925Z,100279.58
2022-08-26T04:49:35.095Z,100280.69
2022-08-26T04:52:04.780Z,100278.42
2022-08-26T04:54:31.317Z,100276.10
2022-08-26T04:56:57.880Z,100275.70
2022-08-26T04:59:24.678Z,100276.08
2022-08-26T05:01:55.585Z,100277.50
2022-08-26T05:04:22.249Z,100278.52
2022-08-26T05:06:49.170Z,100277.06
2022-08-26T05:09:17.761Z,100280.29
2022-08-26T05:11:45.326Z,100281.89
2022-08-26T05:14:15.556Z,100282.84
2022-08-26T05:16:41.990Z,100284.82
2022-08-26T05:19:09.298Z,100282.00
2022-08-26T05:21:35.884Z,100284.63
2022-08-26T05:24:02.401Z,100285.59
2022-08-26T05:26:31.245Z,100285.91
2022-08-26T05:28:58.305Z,100280.52
2022-08-26T05:31:28.514Z,100286.91
2022-08-26T05:33:56.881Z,100287.77
2022-08-26T05:36:26.919Z,100291.84
2022-08-26T05:38:54.433Z,100294.19
2022-08-26T05:41:34.483Z,100297.66
2022-08-26T05:44:06.109Z,100304.02
2022-08-26T05:46:33.763Z,100307.08
2022-08-26T05:49:01.203Z,100305.39
2022-08-26T05:51:29.225Z,100306.35
2022-08-26T05:53:58.227Z,100305.30
2022-08-26T05:56:26.679Z,100304.21
2022-08-26T05:58:54.371Z,100303.52
2022-08-26T06:01:24.987Z,100308.62
2022-08-26T06:03:54.025Z,100303.24
2022-08-26T06:06:27.355Z,100304.48
2022-08-26T06:08:55.371Z,100299.96
2022-08-26T06:11:24.748Z,100300.55
2022-08-26T06:13:57.105Z,100294.96
2022-08-26T06:16:27.810Z,100294.59
2022-08-26T06:18:54.368Z,100293.45
2022-08-26T06:21:22.813Z,100294.55
2022-08-26T06:24:10.764Z,100293.96
2022-08-26T06:26:37.502Z,100296.08
2022-08-26T06:29:05.065Z,100300.39
2022-08-26T06:31:33.702Z,100300.67
2022-08-26T06:34:00.855Z,100296.79
2022-08-26T06:36:29.976Z,100297.21
2022-08-26T06:38:58.607Z,100297.14
2022-08-26T06:41:25.171Z,100296.91
2022-08-26T06:43:52.084Z,100295.80
2022-08-26T06:46:21.010Z,100295.27
2022-08-26T06:48:49.211Z,100295.97
2022-08-26T06:51:22.440Z,100294.92
2022-08-26T06:53:52.041Z,100296.94
2022-08-26T06:56:23.928Z,100298.55
2022-08-26T06:58:51.706Z,100299.23
2022-08-26T07:01:21.469Z,100303.06
2022-08-26T07:03:50.157Z,100299.14
2022-08-26T07:06:18.845Z,100297.75
2022-08-26T07:08:46.602Z,100295.30
2022-08-26T07:11:14.574Z,100295.40
2022-08-26T07:13:41.096Z,100289.09
2022-08-26T07:16:12.398Z,100289.84
2022-08-26T07:18:41.753Z,100291.48
2022-08-26T07:21:14.212Z,100287.94
2022-08-26T07:23:41.349Z,100284.78
2022-08-26T07:26:12.426Z,100284.34
2022-08-26T07:28:38.869Z,100284.50
2022-08-26T07:31:07.396Z,100285.52
2022-08-26T07:33:38.112Z,100282.02
2022-08-26T07:36:07.704Z,100281.17
2022-08-26T07:38:34.342Z,100279.02
2022-08-26T07:41:01.301Z,100279.20
2022-08-26T07:43:28.423Z,100281.73
2022-08-26T07:45:56.129Z,100279.59
2022-08-26T07:48:23.718Z,100275.63
2022-08-26T07:50:52.006Z,100276.91
2022-08-26T07:53:20.955Z,100276.52
2022-08-26T07:55:48.763Z,100273.42
2022-08-26T07:58:15.642Z,100275.43
2022-08-26T08:00:42.573Z,100277.88
2022-08-26T08:03:10.236Z,100274.80
2022-08-26T08:05:37.004Z,100276.48
2022-08-26T08:08:26.263Z,100275.58
2022-08-26T08:10:55.471Z,100273.05
2022-08-26T08:13:23.625Z,100273.23
2022-08-26T08:15:50.425Z,100272.34
2022-08-26T08:18:20.493Z,100270.08
2022-08-26T08:21:04.835Z,100270.58
2022-08-26T08:23:34.085Z,100270.82
2022-08-26T08:26:06.140Z,100269.02
2022-08-26T08:28:35.621Z,100268.38
2022-08-26T08:31:02.643Z,100268.13
2022-08-26T08:33:29.866Z,100263.14
2022-08-26T08:35:57.623Z,100263.63
2022-08-26T08:38:24.706Z,100264.87
2022-08-26T08:40:51.104Z,100261.67
2022-08-26T08:43:29.299Z,100259.73
2022-08-26T08:45:58.805Z,100257.86
2022-08-26T08:48:29.120Z,100256.58
2022-08-26T08:51:21.425Z,100255.30
2022-08-26T08:53:50.952Z,100255.46
2022-08-26T08:56:31.664Z,100254.55
2022-08-26T08:59:17.696Z,100248.80
2022-08-26T09:01:52.477Z,100248.29
2022-08-26T09:04:29.588Z,100247.10
2022-08-26T09:06:59.245Z,100246.64
2022-08-26T09:09:39.148Z,100243.63
2022-08-26T09:12:12.091Z,100246.73
2022-08-26T09:14:38.631Z,100242.36
2022-08-26T09:17:24.708Z,100241.48
2022-08-26T09:20:03.658Z,100237.80
2022-08-26T09:22:33.835Z,100234.71
2022-08-26T09:25:01.425Z,100236.08
2022-08-26T09:27:50.540Z,100230.83
2022-08-26T09:30:26.682Z,100224.92
2022-08-26T09:33:01.826Z,100220.74
2022-08-26T09:35:30.931Z,100217.12
2022-08-26T09:37:58.154Z,100219.14
2022-08-26T09:40:34.913Z,100213.56
2022-08-26T09:43:07.079Z,100210.52
2022-08-26T09:45:35.191Z,100210.78
2022-08-26T09:48:02.703Z,100207.09
2022-08-26T09:50:32.536Z,100205.47
2022-08-26T09:53:12.823Z,100203.50
2022-08-26T09:55:42.239Z,100198.61
2022-08-26T09:58:13.927Z,100203.48
2022-08-26T10:00:55.507Z,100199.84
2022-08-26T10:03:28.615Z,100198.05
2022-08-26T10:06:07.678Z,100197.75
2022-08-26T10:08:47.428Z,100197.30
2022-08-26T10:11:37.105Z,100197.96
2022-08-26T10:14:12.251Z,100193.20
2022-08-26T10:16:49.133Z,100194.98
2022-08-26T10:19:24.980Z,100194.59
2022-08-26T10:22:00.919Z,100195.92
2022-08-26T10:24:46.584Z,100189.89
2022-08-26T10:27:51.075Z,100190.14
2022-08-26T10:30:22.411Z,100189.80
2022-08-26T10:32:57.578Z,100188.86
2022-08-26T10:35:26.374Z,100191.75
2022-08-26T10:37:56.097Z,100185.36
2022-08-26T10:40:40.809Z,100181.36
2022-08-26T10:43:17.244Z,100182.65
2022-08-26T10:45:50.539Z,100182.45
2022-08-26T10:48:24.895Z,100178.47
2022-08-26T10:50:51.464Z,100181.02
2022-08-26T10:54:00.018Z,100174.00
2022-08-26T10:56:39.905Z,100174.48
2022-08-26T10:59:12.440Z,100174.42
2022-08-26T11:01:51.122Z,100169.65
2022-08-26T11:04:28.274Z,100166.99
2022-08-26T11:07:29.584Z,100168.38
2022-08-26T11:10:16.257Z,100162.73
2022-08-26T11:12:44.667Z,100166.48
2022-08-26T11:15:18.728Z,100162.85
2022-08-26T11:17:50.735Z,100161.32
2022-08-26T11:20:35.949Z,100159.48
2022-08-26T11:23:23.385Z,100156.51
2022-08-26T11:26:18.935Z,100150.84
2022-08-26T11:29:03.043Z,100147.88
2022-08-26T11:31:30.079Z,100149.13
2022-08-26T11:34:08.718Z,100144.55
2022-08-26T11:36:46.284Z,100143.81
2022-08-26T11:39:27.861Z,100136.23
2022-08-26T11:42:15.909Z,100133.10
2022-08-26T11:44:49.565Z,100134.20
2022-08-26T11:47:26.076Z,100126.74
2022-08-26T11:50:09.832Z,100128.14
2022-08-26T11:52:36.626Z,100124.45
2022-08-26T11:55:14.847Z,100120.23
2022-08-26T11:57:53.545Z,100118.48
2022-08-26T12:00:22.512Z,100114.08
2022-08-26T12:02:50.961Z,100116.30
2022-08-26T12:05:30.917Z,100111.44
2022-08-26T12:08:02.400Z,100109.16
2022-08-26T12:10:32.005Z,100112.80
2022-08-26T12:13:00.502Z,100113.70
2022-08-26T12:15:29.743Z,100107.15
2022-08-26T12:17:58.606Z,100107.45
2022-08-26T12:20:47.621Z,100101.07
2022-08-26T12:23:45.393Z,100100.91
2022-08-26T12:26:29.200Z,100098.95
2022-08-26T12:29:18.086Z,100099.08
2022-08-26T12:31:47.433Z,100097.73
2022-08-26T12:34:18.631Z,100089.70
2022-08-26T12:36:55.082Z,100092.68
2022-08-26T12:39:37.249Z,100084.27
2022-08-26T12:42:20.160Z,100079.90
2022-08-26T12:44:53.934Z,100080.79
2022-08-26T12:47:32.704Z,100078.57
2022-08-26T12:50:43.931Z,100074.52
2022-08-26T12:53:10.339Z,100066.36
2022-08-26T12:56:24.074Z,100065.46
2022-08-26T12:59:10.300Z,100059.35
2022-08-26T13:01:42.342Z,100056.66
2022-08-26T13:04:45.508Z,100058.08
2022-08-26T13:07:23.625Z,100050.13
2022-08-26T13:09:52.420Z,100051.17
2022-08-26T13:12:34.280Z,100050.91
2022-08-26T13:15:01.771Z,100042.75
2022-08-26T13:17:29.172Z,100043.66
2022-08-26T13:20:02.731Z,100040.16
2022-08-26T13:22:30.786Z,100035.22
2022-08-26T13:24:57.346Z,100033.30
2022-08-26T13:27:26.471Z,100031.52
2022-08-26T13:29:54.169Z,100033.85
2022-08-26T13:32:21.883Z,100031.04
2022-08-26T13:34:51.463Z,100027.16
2022-08-26T13:37:21.565Z,100026.54
2022-08-26T13:40:00.631Z,100024.42
2022-08-26T13:42:27.267Z,100028.38
2022-08-26T13:44:57.353Z,100024.42
2022-08-26T13:47:25.221Z,100021.06
2022-08-26T13:49:53.721Z,100022.72
2022-08-26T13:52:27.294Z,100016.79
2022-08-26T13:54:59.452Z,100013.15
2022-08-26T13:57:27.616Z,100013.83
2022-08-26T13:59:55.849Z,100013.54
2022-08-26T14:02:22.359Z,100011.77
2022-08-26T14:04:48.758Z,100009.84
2022-08-26T14:07:15.678Z,100012.79
2022-08-26T14:09:41.950Z,100004.70
2022-08-26T14:12:08.444Z,100005.03
2022-08-26T14:14:34.883Z,100006.73
2022-08-26T14:17:01.486Z,100002.73
2022-08-26T14:19:29.378Z,100004.66
2022-08-26T14:21:56.397Z,100004.60
2022-08-26T14:24:23.093Z,100004.64
2022-08-26T14:26:49.718Z,99998.78
2022-08-26T14:29:16.805Z,99995.45
2022-08-26T14:31:44.917Z,99993.92
2022-08-26T14:34:12.415Z,99995.50
2022-08-26T14:36:38.743Z,99994.02
2022-08-26T14:39:08.795Z,99992.15
2022-08-26T14:41:40.902Z,99992.51
2022-08-26T14:44:10.761Z,99990.42
2022-08-26T14:46:42.517Z,99991.84
2022-08-26T14:49:10.669Z,99988.31
2022-08-26T14:51:37.994Z,99983.66
2022-08-26T14:54:14.112Z,99986.48
2022-08-26T14:56:42.629Z,99986.57
2022-08-26T14:59:09.719Z,99989.84
2022-08-26T15:01:36.327Z,99986.79
2022-08-26T15:04:02.956Z,99984.36
2022-08-26T15:06:31.192Z,99988.20
2022-08-26T15:08:58.344Z,99986.90
2022-08-26T15:11:24.860Z,99985.02
2022-08-26T15:13:52.404Z,99984.98
2022-08-26T15:16:18.800Z,99982.89
2022-08-26T15:18:45.273Z,99980.96
2022-08-26T15:21:11.820Z,99978.70
2022-08-26T15:23:38.769Z,99976.87
2022-08-26T15:26:10.619Z,99972.80
2022-08-26T15:28:37.963Z,99971.54
2022-08-26T15:31:05.962Z,99972.85
2022-08-26T15:33:34.380Z,99972.08
2022-08-26T15:36:01.677Z,99969.98
2022-08-26T15:38:33.036Z,99972.13
2022-08-26T15:41:03.145Z,99965.86
2022-08-26T15:43:30.471Z,99960.52
2022-08-26T15:45:57.081Z,99959.66
2022-08-26T15:48:24.125Z,99965.84
2022-08-26T15:50:56.649Z,99961.06
2022-08-26T15:53:23.849Z,99961.22
2022-08-26T15:55:53.290Z,99961.14
2022-08-26T15:58:22.312Z,99961.43
2022-08-26T16:00:48.596Z,99960.47
2022-08-26T16:03:14.941Z,99960.89
2022-08-26T16:05:45.276Z,99958.23
2022-08-26T16:08:13.367Z,99956.44
2022-08-26T16:10:47.774Z,99954.29
2022-08-26T16:13:18.420Z,99952.92
2022-08-26T16:15:45.510Z,99953.54
2022-08-26T16:18:13.228Z,99948.73
2022-08-26T16:20:50.134Z,99949.70
2022-08-26T16:23:34.688Z,99951.91
2022-08-26T16:26:08.264Z,99952.77
2022-08-26T16:28:37.882Z,99951.84
2022-08-26T16:31:05.877Z,99948.81
2022-08-26T16:33:32.723Z,99945.23
2022-08-26T16:35:59.052Z,99947.14
2022-08-26T16:38:25.775Z,99947.70
2022-08-26T16:40:52.740Z,99946.84
2022-08-26T16:43:19.150Z,99950.44
2022-08-26T16:45:45.537Z,99944.48
2022-08-26T16:48:12.104Z,99946.58
2022-08-26T16:50:40.138Z,99947.48
2022-08-26T16:53:07.487Z,99947.35
2022-08-26T16:55:34.736Z,99947.43
2022-08-26T16:58:01.753Z,99953.48
2022-08-26T17:00:30.807Z,99949.05
2022-08-26T17:02:58.653Z,99951.80
2022-08-26T17:05:26.348Z,99955.29
2022-08-26T17:07:54.721Z,99953.95
2022-08-26T17:10:22.633Z,99953.73
2022-08-26T17:12:49.610Z,99956.77
2022-08-26T17:15:17.137Z,99961.01
2022-08-26T17:17:44.254Z,99961.16
2022-08-26T17:20:13.773Z,99961.84
2022-08-26T17:22:46.608Z,99966.66
2022-08-26T17:25:23.769Z,99965.05
2022-08-26T17:27:50.306Z,99966.48
2022-08-26T17:30:17.648Z,99965.69
2022-08-26T17:32:45.795Z,99969.37
2022-08-26T17:35:13.459Z,99970.11
2022-08-26T17:37:40.258Z,99967.54
2022-08-26T17:40:09.436Z,99968.50
2022-08-26T17:42:37.479Z,99968.70
2022-08-26T17:45:05.401Z,99970.84
2022-08-26T17:47:33.338Z,99970.00
2022-08-26T17:50:00.738Z,99970.27
2022-08-26T17:52:28.548Z,99965.88
2022-08-26T17:54:55.679Z,99970.92
2022-08-26T17:57:23.295Z,99973.27
2022-08-26T17:59:49.982Z,99973.02
2022-08-26T18:02:20.411Z,99974.57
2022-08-26T18:04:46.936Z,99969.98
2022-08-26T18:07:13.430Z,99976.11
2022-08-26T18:09:40.726Z,99975.19
2022-08-26T18:12:09.731Z,99973.56
2022-08-26T18:14:36.718Z,99975.76
2022-08-26T18:17:03.408Z,99973.85
2022-08-26T18:19:30.691Z,99972.53
2022-08-26T18:21:57.297Z,99978.02
2022-08-26T18:24:24.816Z,99983.14
2022-08-26T18:26:51.314Z,99982.23
2022-08-26T18:29:18.978Z,99983.17
2022-08-26T18:31:47.733Z,99981.16
2022-08-26T18:34:15.964Z,99981.72
2022-08-26T18:36:43.406Z,99982.90
2022-08-26T18:39:12.000Z,99983.86
2022-08-26T18:41:49.893Z,99984.64
2022-08-26T18:44:18.007Z,99987.53
2022-08-26T18:46:45.616Z,99986.45
2022-08-26T18:49:13.760Z,99986.70
2022-08-26T18:51:40.767Z,99987.21
2022-08-26T18:54:07.704Z,99986.12
2022-08-26T18:56:36.073Z,99982.67
2022-08-26T18:59:03.912Z,99985.23
2022-08-26T19:01:31.023Z,99988.13
2022-08-26T19:03:59.026Z,99985.89
2022-08-26T19:06:26.856Z,99982.89
2022-08-26T19:08:53.610Z,99985.04
2022-08-26T19:11:31.566Z,99983.92
2022-08-26T19:14:00.690Z,99984.85
2022-08-26T19:16:28.136Z,99985.92
2022-08-26T19:18:55.384Z,99986.77
2022-08-26T19:21:22.540Z,99981.76
2022-08-26T19:23:49.432Z,99981.71
2022-08-26T19:26:16.515Z,99982.96
2022-08-26T19:28:43.109Z,99981.20
2022-08-26T19:31:11.957Z,99979.59
2022-08-26T19:33:39.873Z,99983.94
2022-08-26T19:36:11.453Z,99985.56
2022-08-26T19:38:41.726Z,99986.34
2022-08-26T19:41:20.595Z,99989.19
2022-08-26T19:43:47.259Z,99990.08
2022-08-26T19:46:19.856Z,99990.52
2022-08-26T19:48:47.478Z,99990.90
2022-08-26T19:51:18.335Z,99993.67
2022-08-26T19:53:46.086Z,99997.10
2022-08-26T19:56:13.396Z,99997.09
2022-08-26T19:58:40.269Z,99996.68
2022-08-26T20:01:07.711Z,99997.23
2022-08-26T20:03:35.615Z,99995.18
2022-08-26T20:06:03.246Z,99992.52
2022-08-26T20:08:29.767Z,99993.82
2022-08-26T20:10:59.301Z,99991.11
2022-08-26T20:13:25.595Z,99992.09
2022-08-26T20:15:52.012Z,99993.77
2022-08-26T20:18:36.981Z,99995.84
2022-08-26T20:21:22.138Z,99995.40
2022-08-26T20:23:50.759Z,99999.45
2022-08-26T20:26:17.838Z,100003.02
2022-08-26T20:28:44.474Z,100000.19
2022-08-26T20:31:10.966Z,100001.95
2022-08-26T20:33:46.380Z,100000.08
2022-08-26T20:36:14.650Z,100004.09
2022-08-26T20:38:41.063Z,100003.29
2022-08-26T20:41:07.546Z,100007.32
2022-08-26T20:43:34.001Z,100010.86
2022-08-26T20:46:00.952Z,100008.09
2022-08-26T20:48:27.816Z,100009.39
2022-08-26T20:51:01.012Z,100009.52
2022-08-26T20:53:28.725Z,100011.60
2022-08-26T20:55:59.710Z,100018.36
2022-08-26T20:58:26.132Z,100023.98
2022-08-26T21:00:52.485Z,100019.62
2022-08-26T21:03:18.959Z,100024.24
2022-08-26T21:05:45.476Z,100022.13
2022-08-26T21:08:12.593Z,100018.69
2022-08-26T21:10:39.132Z,100021.68
2022-08-26T21:13:06.133Z,100020.38
2022-08-26T21:15:32.987Z,100021.27
2022-08-26T21:18:00.035Z,100022.80
2022-08-26T21:20:26.345Z,100021.14
2022-08-26T21:22:52.875Z,100020.98
2022-08-26T21:25:19.413Z,100021.84
2022-08-26T21:27:47.754Z,100019.75
2022-08-26T21:30:15.380Z,100024.64
2022-08-26T21:32:41.878Z,100021.58
2022-08-26T21:35:09.845Z,100024.00
2022-08-26T21:37:36.181Z,100018.30
2022-08-26T21:40:04.414Z,100018.85
2022-08-26T21:42:32.696Z,100018.85
2022-08-26T21:44:59.883Z,100015.44
2022-08-26T21:47:26.316Z,100017.38
2022-08-26T21:49:53.030Z,100012.60
2022-08-26T21:52:20.773Z,100014.81
2022-08-26T21:54:49.271Z,100019.65
2022-08-26T21:57:16.874Z,100015.48
2022-08-26T21:59:43.157Z,100011.85
2022-08-26T22:02:10.979Z,100011.61
2022-08-26T22:04:37.593Z,100011.79
2022-08-26T22:07:04.313Z,100010.78
2022-08-26T22:09:31.128Z,100009.64
2022-08-26T22:11:58.372Z,100010.06
2022-08-26T22:14:29.847Z,100012.59
2022-08-26T22:16:58.247Z,100011.05
2022-08-26T22:19:25.685Z,100012.48
2022-08-26T22:21:53.706Z,100012.70
2022-08-26T22:24:22.875Z,100012.13
2022-08-26T22:26:49.382Z,100009.98
2022-08-26T22:29:16.732Z,100012.76
2022-08-26T22:31:43.232Z,100013.81
2022-08-26T22:34:12.133Z,100017.05
2022-08-26T22:36:43.045Z,100018.64
2022-08-26T22:39:16.239Z,100018.84
2022-08-26T22:41:43.565Z,100019.39
2022-08-26T22:44:11.002Z,100020.51
2022-08-26T22:46:37.924Z,100018.79
2022-08-26T22:49:05.771Z,100019.98
2022-08-26T22:51:32.591Z,100017.90
2022-08-26T22:53:58.880Z,100014.10
2022-08-26T22:56:25.652Z,100012.80
2022-08-26T22:58:52.014Z,100011.27
2022-08-26T23:01:18.455Z,100009.14
2022-08-26T23:03:45.296Z,100008.80
2022-08-26T23:06:11.811Z,100005.98
2022-08-26T23:08:38.790Z,100008.06
2022-08-26T23:11:09.760Z,100006.91
2022-08-26T23:13:36.524Z,100005.17
2022-08-26T23:16:06.696Z,100001.52
2022-08-26T23:18:33.116Z,99998.89
2022-08-26T23:20:59.421Z,100000.92
2022-08-26T23:23:26.982Z,99997.56
2022-08-26T23:25:55.734Z,99996.54
2022-08-26T23:28:22.677Z,99997.34
2022-08-26T23:30:49.407Z,99994.89
2022-08-26T23:33:15.846Z,99991.11
2022-08-26T23:35:42.165Z,99990.52
2022-08-26T23:38:09.218Z,99988.58
2022-08-26T23:40:38.134Z,99986.31
2022-08-26T23:43:06.794Z,99988.04
2022-08-26T23:45:33.963Z,99983.84
2022-08-26T23:48:00.687Z,99983.38
2022-08-26T23:50:48.199Z,99981.38
2022-08-26T23:53:19.237Z,99977.84
2022-08-26T23:55:48.947Z,99975.52
2022-08-26T23:58:16.937Z,99971.80
